sensor_id;sensor_type;location;lat;lon;timestamp;P1;durP1;ratioP1;P2;durP2;ratioP2
26838;SDS011;40088;51.214;6.786;2023-04-25T00:08:17;6.45;;;2.70;;
26838;SDS011;40088;51.214;6.786;2023-04-25T00:18:18;5.93;;;3.00;;
26838;SDS011;40088;51.214;6.786;2023-04-25T00:28:19;7.03;;;3.00;;
26838;SDS011;40088;51.214;6.786;2023-04-25T00:38:19;7.03;;;2.72;;
26838;SDS011;40088;51.214;6.786;2023-04-25T00:48:21;5.10;;;2.70;;
26838;SDS011;40088;51.214;6.786;2023-04-25T00:58:22;4.83;;;2.67;;
26838;SDS011;40088;51.214;6.786;2023-04-25T01:08:23;6.55;;;3.17;;
26838;SDS011;40088;51.214;6.786;2023-04-25T01:18:25;5.65;;;2.60;;
26838;SDS011;40088;51.214;6.786;2023-04-25T01:28:26;6.18;;;2.78;;
26838;SDS011;40088;51.214;6.786;2023-04-25T01:38:27;6.53;;;2.80;;
26838;SDS011;40088;51.214;6.786;2023-04-25T01:48:28;5.05;;;2.47;;
26838;SDS011;40088;51.214;6.786;2023-04-25T01:58:28;6.00;;;2.65;;
26838;SDS011;40088;51.214;6.786;2023-04-25T02:08:28;6.53;;;2.40;;
26838;SDS011;40088;51.214;6.786;2023-04-25T02:18:30;6.18;;;2.35;;
26838;SDS011;40088;51.214;6.786;2023-04-25T02:28:31;4.90;;;2.60;;
26838;SDS011;40088;51.214;6.786;2023-04-25T02:38:31;4.80;;;2.17;;
26838;SDS011;40088;51.214;6.786;2023-04-25T02:48:31;4.05;;;2.08;;
26838;SDS011;40088;51.214;6.786;2023-04-25T02:58:32;3.25;;;1.73;;
26838;SDS011;40088;51.214;6.786;2023-04-25T03:08:32;3.75;;;2.00;;
26838;SDS011;40088;51.214;6.786;2023-04-25T03:18:34;4.15;;;2.00;;
26838;SDS011;40088;51.214;6.786;2023-04-25T03:28:34;2.85;;;1.70;;
26838;SDS011;40088;51.214;6.786;2023-04-25T03:38:34;3.60;;;1.80;;
26838;SDS011;40088;51.214;6.786;2023-04-25T03:48:35;3.85;;;1.98;;
26838;SDS011;40088;51.214;6.786;2023-04-25T03:58:36;3.93;;;2.07;;
26838;SDS011;40088;51.214;6.786;2023-04-25T04:08:36;5.57;;;2.45;;
26838;SDS011;40088;51.214;6.786;2023-04-25T04:18:36;4.55;;;2.20;;
26838;SDS011;40088;51.214;6.786;2023-04-25T04:28:36;6.45;;;2.35;;
26838;SDS011;40088;51.214;6.786;2023-04-25T04:38:37;5.18;;;2.30;;
26838;SDS011;40088;51.214;6.786;2023-04-25T04:48:38;4.78;;;1.90;;
26838;SDS011;40088;51.214;6.786;2023-04-25T04:58:40;6.00;;;2.17;;
26838;SDS011;40088;51.214;6.786;2023-04-25T05:08:40;6.38;;;2.20;;
26838;SDS011;40088;51.214;6.786;2023-04-25T05:18:40;5.22;;;1.90;;
26838;SDS011;40088;51.214;6.786;2023-04-25T05:28:41;4.97;;;2.05;;
26838;SDS011;40088;51.214;6.786;2023-04-25T05:38:41;5.65;;;2.33;;
26838;SDS011;40088;51.214;6.786;2023-04-25T05:48:42;3.92;;;2.00;;
26838;SDS011;40088;51.214;6.786;2023-04-25T05:58:43;5.28;;;2.42;;
26838;SDS011;40088;51.214;6.786;2023-04-25T06:08:44;4.88;;;2.05;;
26838;SDS011;40088;51.214;6.786;2023-04-25T06:18:44;5.50;;;2.40;;
26838;SDS011;40088;51.214;6.786;2023-04-25T06:28:45;7.85;;;2.80;;
26838;SDS011;40088;51.214;6.786;2023-04-25T06:38:45;7.25;;;2.40;;
26838;SDS011;40088;51.214;6.786;2023-04-25T06:48:46;7.28;;;2.55;;
26838;SDS011;40088;51.214;6.786;2023-04-25T06:58:46;7.60;;;2.33;;
26838;SDS011;40088;51.214;6.786;2023-04-25T07:08:46;7.03;;;2.53;;
26838;SDS011;40088;51.214;6.786;2023-04-25T07:18:47;5.77;;;2.20;;
26838;SDS011;40088;51.214;6.786;2023-04-25T07:28:47;6.03;;;2.63;;
26838;SDS011;40088;51.214;6.786;2023-04-25T07:38:50;4.37;;;2.30;;
26838;SDS011;40088;51.214;6.786;2023-04-25T07:48:50;4.90;;;2.47;;
26838;SDS011;40088;51.214;6.786;2023-04-25T07:58:51;5.53;;;2.33;;
26838;SDS011;40088;51.214;6.786;2023-04-25T08:08:51;5.15;;;2.55;;
26838;SDS011;40088;51.214;6.786;2023-04-25T08:18:52;6.50;;;2.63;;
26838;SDS011;40088;51.214;6.786;2023-04-25T08:28:52;9.57;;;2.90;;
26838;SDS011;40088;51.214;6.786;2023-04-25T08:38:53;9.65;;;2.50;;
26838;SDS011;40088;51.214;6.786;2023-04-25T08:48:53;6.32;;;2.60;;
26838;SDS011;40088;51.214;6.786;2023-04-25T08:59:01;7.97;;;2.67;;
26838;SDS011;40088;51.214;6.786;2023-04-25T09:09:03;6.25;;;2.70;;
26838;SDS011;40088;51.214;6.786;2023-04-25T09:19:05;5.13;;;2.53;;
26838;SDS011;40088;51.214;6.786;2023-04-25T09:29:05;5.40;;;2.33;;
26838;SDS011;40088;51.214;6.786;2023-04-25T09:39:12;5.82;;;2.20;;
26838;SDS011;40088;51.214;6.786;2023-04-25T09:49:15;5.40;;;2.10;;
26838;SDS011;40088;51.214;6.786;2023-04-25T09:59:16;4.72;;;2.20;;
26838;SDS011;40088;51.214;6.786;2023-04-25T10:09:20;4.68;;;2.00;;
26838;SDS011;40088;51.214;6.786;2023-04-25T10:19:21;4.38;;;2.20;;
26838;SDS011;40088;51.214;6.786;2023-04-25T10:29:22;4.13;;;2.17;;
26838;SDS011;40088;51.214;6.786;2023-04-25T10:39:24;3.47;;;1.83;;
26838;SDS011;40088;51.214;6.786;2023-04-25T10:49:28;3.97;;;1.67;;
26838;SDS011;40088;51.214;6.786;2023-04-25T10:59:30;4.03;;;1.95;;
26838;SDS011;40088;51.214;6.786;2023-04-25T11:09:35;3.72;;;1.75;;
26838;SDS011;40088;51.214;6.786;2023-04-25T11:19:36;4.75;;;1.67;;
26838;SDS011;40088;51.214;6.786;2023-04-25T11:29:36;3.55;;;1.50;;
26838;SDS011;40088;51.214;6.786;2023-04-25T11:39:36;3.05;;;1.88;;
26838;SDS011;40088;51.214;6.786;2023-04-25T11:49:37;2.63;;;1.52;;
26838;SDS011;40088;51.214;6.786;2023-04-25T11:59:37;4.35;;;1.73;;
26838;SDS011;40088;51.214;6.786;2023-04-25T12:09:37;6.82;;;1.90;;
26838;SDS011;40088;51.214;6.786;2023-04-25T12:19:39;3.53;;;1.58;;
26838;SDS011;40088;51.214;6.786;2023-04-25T12:29:40;3.92;;;1.98;;
26838;SDS011;40088;51.214;6.786;2023-04-25T12:39:54;6.30;;;2.10;;
26838;SDS011;40088;51.214;6.786;2023-04-25T12:49:55;6.50;;;1.98;;
26838;SDS011;40088;51.214;6.786;2023-04-25T12:59:55;4.93;;;2.00;;
26838;SDS011;40088;51.214;6.786;2023-04-25T13:09:56;4.05;;;1.75;;
26838;SDS011;40088;51.214;6.786;2023-04-25T13:19:56;4.75;;;2.10;;
26838;SDS011;40088;51.214;6.786;2023-04-25T13:29:56;4.25;;;2.00;;
26838;SDS011;40088;51.214;6.786;2023-04-25T13:39:56;4.80;;;2.00;;
26838;SDS011;40088;51.214;6.786;2023-04-25T13:49:57;4.50;;;1.88;;
26838;SDS011;40088;51.214;6.786;2023-04-25T13:59:57;4.18;;;1.73;;
26838;SDS011;40088;51.214;6.786;2023-04-25T14:09:57;3.42;;;1.50;;
26838;SDS011;40088;51.214;6.786;2023-04-25T14:19:57;3.47;;;1.75;;
26838;SDS011;40088;51.214;6.786;2023-04-25T14:29:58;4.88;;;1.80;;
26838;SDS011;40088;51.214;6.786;2023-04-25T14:39:58;3.67;;;1.63;;
26838;SDS011;40088;51.214;6.786;2023-04-25T14:49:58;4.90;;;1.80;;
26838;SDS011;40088;51.214;6.786;2023-04-25T14:59:59;2.55;;;1.48;;
26838;SDS011;40088;51.214;6.786;2023-04-25T15:10:00;3.25;;;1.55;;
26838;SDS011;40088;51.214;6.786;2023-04-25T15:20:00;3.65;;;1.60;;
26838;SDS011;40088;51.214;6.786;2023-04-25T15:30:01;3.75;;;1.70;;
26838;SDS011;40088;51.214;6.786;2023-04-25T15:40:05;4.45;;;1.67;;
26838;SDS011;40088;51.214;6.786;2023-04-25T15:50:15;4.32;;;1.33;;
26838;SDS011;40088;51.214;6.786;2023-04-25T16:00:15;2.67;;;1.50;;
26838;SDS011;40088;51.214;6.786;2023-04-25T16:10:17;2.05;;;1.20;;
26838;SDS011;40088;51.214;6.786;2023-04-25T16:20:20;4.80;;;1.65;;
26838;SDS011;40088;51.214;6.786;2023-04-25T16:30:21;2.33;;;1.40;;
26838;SDS011;40088;51.214;6.786;2023-04-25T16:40:21;4.22;;;1.90;;
26838;SDS011;40088;51.214;6.786;2023-04-25T16:50:22;2.70;;;1.30;;
26838;SDS011;40088;51.214;6.786;2023-04-25T17:00:22;1.70;;;1.10;;
26838;SDS011;40088;51.214;6.786;2023-04-25T17:10:22;2.78;;;1.40;;
26838;SDS011;40088;51.214;6.786;2023-04-25T17:20:23;2.60;;;1.17;;
26838;SDS011;40088;51.214;6.786;2023-04-25T17:30:23;3.20;;;1.60;;
26838;SDS011;40088;51.214;6.786;2023-04-25T17:40:23;2.80;;;1.20;;
26838;SDS011;40088;51.214;6.786;2023-04-25T17:50:25;2.45;;;1.20;;
26838;SDS011;40088;51.214;6.786;2023-04-25T18:00:26;4.53;;;2.00;;
26838;SDS011;40088;51.214;6.786;2023-04-25T18:10:27;3.28;;;1.60;;
26838;SDS011;40088;51.214;6.786;2023-04-25T18:20:27;2.83;;;1.60;;
26838;SDS011;40088;51.214;6.786;2023-04-25T18:30:27;2.72;;;1.70;;
26838;SDS011;40088;51.214;6.786;2023-04-25T18:40:27;2.65;;;1.48;;
26838;SDS011;40088;51.214;6.786;2023-04-25T18:50:28;3.35;;;1.70;;
26838;SDS011;40088;51.214;6.786;2023-04-25T19:00:28;3.60;;;1.70;;
26838;SDS011;40088;51.214;6.786;2023-04-25T19:10:29;3.03;;;1.50;;
26838;SDS011;40088;51.214;6.786;2023-04-25T19:20:29;4.57;;;1.80;;
26838;SDS011;40088;51.214;6.786;2023-04-25T19:30:30;3.45;;;1.70;;
26838;SDS011;40088;51.214;6.786;2023-04-25T19:40:30;15.95;;;3.42;;
26838;SDS011;40088;51.214;6.786;2023-04-25T19:50:31;23.33;;;4.45;;
26838;SDS011;40088;51.214;6.786;2023-04-25T20:00:31;22.85;;;4.80;;
26838;SDS011;40088;51.214;6.786;2023-04-25T20:10:31;20.13;;;4.22;;
26838;SDS011;40088;51.214;6.786;2023-04-25T20:20:32;24.85;;;4.30;;
26838;SDS011;40088;51.214;6.786;2023-04-25T20:30:32;9.90;;;3.30;;
26838;SDS011;40088;51.214;6.786;2023-04-25T20:40:32;13.25;;;3.13;;
26838;SDS011;40088;51.214;6.786;2023-04-25T20:50:33;10.13;;;3.25;;
26838;SDS011;40088;51.214;6.786;2023-04-25T21:00:33;11.10;;;3.13;;
26838;SDS011;40088;51.214;6.786;2023-04-25T21:10:34;7.30;;;2.73;;
26838;SDS011;40088;51.214;6.786;2023-04-25T21:20:34;6.45;;;2.42;;
26838;SDS011;40088;51.214;6.786;2023-04-25T21:30:34;6.70;;;2.53;;
26838;SDS011;40088;51.214;6.786;2023-04-25T21:40:35;3.83;;;2.47;;
26838;SDS011;40088;51.214;6.786;2023-04-25T21:50:36;4.70;;;2.58;;
26838;SDS011;40088;51.214;6.786;2023-04-25T22:00:36;7.78;;;2.50;;
26838;SDS011;40088;51.214;6.786;2023-04-25T22:10:38;5.07;;;2.35;;
26838;SDS011;40088;51.214;6.786;2023-04-25T22:20:38;6.28;;;2.92;;
26838;SDS011;40088;51.214;6.786;2023-04-25T22:30:39;2.90;;;2.10;;
26838;SDS011;40088;51.214;6.786;2023-04-25T22:40:39;3.10;;;2.00;;
26838;SDS011;40088;51.214;6.786;2023-04-25T22:50:40;4.43;;;2.10;;
26838;SDS011;40088;51.214;6.786;2023-04-25T23:00:40;4.00;;;2.08;;
26838;SDS011;40088;51.214;6.786;2023-04-25T23:10:41;3.43;;;1.70;;
26838;SDS011;40088;51.214;6.786;2023-04-25T23:20:42;2.53;;;1.60;;
26838;SDS011;40088;51.214;6.786;2023-04-25T23:30:42;3.65;;;2.00;;
26838;SDS011;40088;51.214;6.786;2023-04-25T23:40:42;3.97;;;1.90;;
26838;SDS011;40088;51.214;6.786;2023-04-25T23:50:43;3.08;;;1.83;;
